sim
Sign-in with your pilot id or email,
or register
Callsign
Passwort

Schedule Details

Flight Number: OEO5831
Departure: Zurich Airport (LSZH) at 11:15
Arrival: Fuerteventura Airport (GCFV) at 15:55

Weather Information
Getting current METAR information for LSZH 231020Z 04006KT 360V090 CAVOK 28/17 Q1022 NOSIG
Getting current METAR information for GCFV 231030Z 05013KT 9999 FEW020 24/18 Q1017

Schedule Frequency

Route Map